Flinterborg — PHPH — position and weather

sailwx.info

Track history (hours):
 
Tides and Currents Weather Stations Pressure Air Temp Water Temp Dewpoint Dewpoint Depression Visibility Wind Speed Wind Dir Waves Ship Positions

Flinterborg

Last reported at 2017-May-25 01:42 UTC. Time now 2017-May-25 02:53 UTC.
Position N 50°34' W 006°07'.

Length 111 m; draft 4 m.

Type: Cargo ship. MMSI: 245433000.

Date/timePositionNaut miles runAvg speedWind from/ knotsBaromVisibWave heightAir tempDewpointWater temp
2017-May-25 01:42N 50°34' W 006°07'310.7
2017-May-25 01:25N 50°37' W 006°09'2511.2
2017-May-24 23:09N 51°00' W 006°23'211.5
2017-May-24 22:58N 51°02' W 006°24'911.5
2017-May-24 22:10N 51°11' W 006°28'611.3
2017-May-24 21:39N 51°17' W 006°32'211.5
2017-May-24 21:27N 51°19' W 006°33'1211.3
2017-May-24 20:22N 51°31' W 006°38'611.3
2017-May-24 19:49N 51°36' W 006°41'911.3
2017-May-24 18:59N 51°45' W 006°46'611.3
2017-May-24 18:29N 51°51' W 006°49'611.4
2017-May-24 17:56N 51°57' W 006°52'511.6
2017-May-24 17:28N 52°02' W 006°55'711.8
2017-May-24 16:53N 52°09' W 006°58'610.2
2017-May-24 16:20N 52°14' W 006°57'3 7.5
2017-May-24 15:57N 52°17' W 006°60'2 1.0
2017-May-24 14:17N 52°16' W 007°02'0 0.0
2017-May-24 10:08N 52°16' W 007°02'0 0.0
2017-May-24 07:25N 52°16' W 007°02'0 0.0
2017-May-24 06:55N 52°16' W 007°02'0 0.0
2017-May-24 03:31N 52°16' W 007°02'0 0.0
2017-May-24 01:05N 52°16' W 007°02'0 0.0
2017-May-23 23:34N 52°16' W 007°02'0 0.0
2017-May-23 19:48N 52°16' W 007°02'0 0.0
2017-May-23 12:53N 52°16' W 007°02'0 0.0
2017-May-23 11:53N 52°16' W 007°02'0 0.0
2017-May-23 07:50N 52°16' W 007°02'0 0.0
2017-May-23 07:09N 52°16' W 007°02'0 0.0
2017-May-23 03:25N 52°16' W 007°02'0 0.0
2017-May-23 02:31N 52°16' W 007°02'0 0.0
2017-May-23 02:19N 52°16' W 007°02'0 0.0
2017-May-23 00:00N 52°16' W 007°02'0 0.0
2017-May-22 23:30N 52°16' W 007°02'0 0.1
2017-May-22 22:59N 52°16' W 007°02'1 2.9
2017-May-22 22:30N 52°16' W 007°00'4 7.2
2017-May-22 21:59N 52°14' W 006°57'5 9.2
2017-May-22 21:29N 52°09' W 006°58'2 4.4
2017-May-22 21:00N 52°07' W 006°58'5 7.5
2017-May-22 20:21N 52°02' W 006°57'3 7.9
2017-May-22 19:59N 51°59' W 006°57'4 8.0
2017-May-22 19:31N 51°55' W 006°56'510.5
2017-May-22 19:01N 51°50' W 006°56'510.7
2017-May-22 18:30N 51°45' W 006°55'510.9
2017-May-22 18:00N 51°39' W 006°54'510.9
2017-May-22 17:30N 51°34' W 006°53'510.8
2017-May-22 17:00N 51°29' W 006°52'610.8
2017-May-22 16:29N 51°23' W 006°51'24210.9
2017-May-21 18:17N 47°24' W 005°59'310.7
2017-May-21 18:00N 47°21' W 005°57'611.5
2017-May-21 17:30N 47°18' W 005°50'611.2
2017-May-21 16:58N 47°14' W 005°43'511.0
2017-May-21 16:30N 47°12' W 005°37'611.6
2017-May-21 15:59N 47°08' W 005°29'511.2
2017-May-21 15:30N 47°05' W 005°23'610.9
2017-May-21 14:59N 47°02' W 005°16'1111.1
2017-May-21 13:58N 46°51' W 005°10'159 3.2
2017-May-19 12:08N 45°54' W 001°34'212.2
2017-May-19 11:58N 45°56' W 001°33'612.5
2017-May-19 11:30N 46°02' W 001°30'611.4
2017-May-19 11:00N 46°06' W 001°25'612.7
2017-May-19 10:30N 46°06' W 001°16'4 7.1
2017-May-19 09:58N 46°10' W 001°14'0 0.0
2017-May-19 09:28N 46°10' W 001°14'0 0.0
2017-May-19 09:00N 46°10' W 001°14'0 0.0
2017-May-19 08:30N 46°10' W 001°14'0 0.0
2017-May-19 08:00N 46°10' W 001°14'0 0.0
2017-May-19 07:30N 46°10' W 001°14'0 0.0
2017-May-19 06:57N 46°10' W 001°14'0 0.0
2017-May-19 06:29N 46°10' W 001°14'0 0.0
2017-May-19 05:59N 46°10' W 001°14'0 0.0
2017-May-19 05:29N 46°10' W 001°14'0 0.0
2017-May-19 04:59N 46°10' W 001°14'0 0.0
2017-May-19 04:22N 46°10' W 001°14'0 0.0
2017-May-19 03:49N 46°10' W 001°14'0 0.0
2017-May-19 03:28N 46°10' W 001°14'0 0.0
2017-May-19 02:55N 46°10' W 001°14'0 0.0
2017-May-19 02:28N 46°10' W 001°14'0 0.0
2017-May-19 02:00N 46°10' W 001°14'0 0.0
2017-May-19 01:30N 46°10' W 001°14'0 0.0
2017-May-19 01:00N 46°10' W 001°14'0 0.0
2017-May-19 00:30N 46°10' W 001°14'0 0.0
2017-May-19 00:00N 46°10' W 001°14'0 0.0
2017-May-18 23:26N 46°10' W 001°14'0 0.0
2017-May-18 22:59N 46°10' W 001°14'0 0.0
2017-May-18 22:29N 46°10' W 001°14'0 0.0
2017-May-18 21:59N 46°10' W 001°14'0 0.0
2017-May-18 21:29N 46°10' W 001°14'0 0.0
2017-May-18 20:58N 46°10' W 001°14'0 0.0
2017-May-18 20:28N 46°10' W 001°14'0 0.0
2017-May-18 19:58N 46°10' W 001°14'0 0.0
2017-May-18 19:28N 46°10' W 001°14'0 0.0
2017-May-18 19:00N 46°10' W 001°14'0 0.0
2017-May-18 18:27N 46°10' W 001°14'0 0.0
2017-May-18 18:00N 46°10' W 001°14'0 0.0
2017-May-18 17:27N 46°10' W 001°14'0 0.0
2017-May-18 16:53N 46°10' W 001°14'0 0.0
2017-May-18 16:26N 46°10' W 001°14'0 0.0
2017-May-18 15:59N 46°10' W 001°14'0 0.0
2017-May-18 15:29N 46°10' W 001°14'0 0.0
2017-May-18 14:59N 46°10' W 001°14'0 0.0
2017-May-18 14:28N 46°10' W 001°14'0 0.0
2017-May-18 13:28N 46°10' W 001°14'0 0.0
2017-May-18 12:58N 46°10' W 001°14'0 0.0
2017-May-18 12:28N 46°10' W 001°14'0 0.0
2017-May-18 12:00N 46°10' W 001°14'0 0.0
2017-May-18 11:30N 46°10' W 001°14'0 0.0
2017-May-18 11:00N 46°10' W 001°14'0 0.0
2017-May-18 10:30N 46°10' W 001°14'0 0.0
2017-May-18 10:00N 46°10' W 001°14'0 0.0
2017-May-18 09:29N 46°10' W 001°14'0 0.0
2017-May-18 08:59N 46°10' W 001°14'0 0.0
2017-May-18 08:26N 46°10' W 001°14'0 0.0
2017-May-18 07:59N 46°10' W 001°14'0 0.0
2017-May-18 07:28N 46°10' W 001°14'0 0.0
2017-May-18 06:46N 46°10' W 001°14'0 0.0
2017-May-18 06:28N 46°10' W 001°14'0 0.0
2017-May-18 05:58N 46°10' W 001°14'0 0.0
2017-May-18 05:28N 46°10' W 001°14'0 0.0
2017-May-18 04:57N 46°10' W 001°14'0 0.0
2017-May-18 04:27N 46°10' W 001°14'0 0.0
2017-May-18 03:57N 46°10' W 001°14'0 0.0
2017-May-18 03:30N 46°10' W 001°14'0 0.0
2017-May-18 02:59N 46°10' W 001°14'0 0.0
2017-May-18 02:29N 46°10' W 001°14'0 0.0
2017-May-18 01:56N 46°10' W 001°14'0 0.0
2017-May-18 01:29N 46°10' W 001°14'0 0.0
2017-May-18 00:59N 46°10' W 001°14'0 0.0
2017-May-18 00:28N 46°10' W 001°14'0 0.0
2017-May-17 23:55N 46°10' W 001°14'0 0.0
2017-May-17 23:28N 46°10' W 001°14'0 0.0
2017-May-17 22:55N 46°10' W 001°14'0 0.0
2017-May-17 22:31N 46°10' W 001°14'0 0.0
2017-May-17 22:00N 46°10' W 001°14'0 0.0
2017-May-17 21:30N 46°10' W 001°14'0 0.0
2017-May-17 21:00N 46°10' W 001°14'0 0.0
2017-May-17 20:30N 46°10' W 001°14'0 0.0
2017-May-17 19:59N 46°10' W 001°14'0 0.0
2017-May-17 19:29N 46°10' W 001°14'0 0.0
2017-May-17 18:59N 46°10' W 001°14'0 0.0
2017-May-17 18:23N 46°10' W 001°14'0 0.0
2017-May-17 17:59N 46°10' W 001°14'0 0.0
2017-May-17 17:10N 46°10' W 001°14'0 0.0
2017-May-17 16:58N 46°10' W 001°14'0 0.0
2017-May-17 16:28N 46°10' W 001°14'0 0.0
2017-May-17 15:58N 46°10' W 001°14'0 0.0
2017-May-17 15:21N 46°10' W 001°14'0 0.0
2017-May-17 15:00N 46°10' W 001°14'0 0.0
2017-May-17 14:00N 46°10' W 001°14'0 0.0
2017-May-17 13:27N 46°10' W 001°14'0 0.0
2017-May-17 12:56N 46°10' W 001°14'0 0.0
2017-May-17 12:26N 46°10' W 001°14'0 0.0
2017-May-17 11:56N 46°10' W 001°14'0 0.0
2017-May-17 11:26N 46°10' W 001°14'0 0.0
2017-May-17 10:59N 46°10' W 001°14'0 0.0
2017-May-17 10:19N 46°10' W 001°14'0 0.0
2017-May-17 09:55N 46°10' W 001°14'0 0.0
2017-May-17 09:25N 46°10' W 001°14'0 0.0
2017-May-17 08:55N 46°10' W 001°14'0 0.0
2017-May-17 08:31N 46°10' W 001°14'0 0.0
2017-May-17 08:00N 46°10' W 001°14'0 0.0
2017-May-17 07:30N 46°10' W 001°14'0 0.0
2017-May-17 07:00N 46°10' W 001°14'0 0.0
2017-May-17 06:30N 46°10' W 001°14'0 0.0
2017-May-17 05:53N 46°10' W 001°14'0 0.0
2017-May-17 05:29N 46°10' W 001°14'0 0.0
2017-May-17 04:59N 46°10' W 001°14'0 0.0
2017-May-17 04:29N 46°10' W 001°14'0 0.0
2017-May-17 03:59N 46°10' W 001°14'0 0.0
2017-May-17 03:28N 46°10' W 001°14'0 0.0
2017-May-17 02:58N 46°10' W 001°14'0 0.0
2017-May-17 02:28N 46°10' W 001°14'0 0.0
2017-May-17 01:58N 46°10' W 001°14'0 0.0
2017-May-17 01:27N 46°10' W 001°14'0 0.0
2017-May-17 01:00N 46°10' W 001°14'0 0.0
2017-May-17 00:27N 46°10' W 001°14'0 0.0
2017-May-16 23:57N 46°10' W 001°14'0 0.0
2017-May-16 23:30N 46°10' W 001°14'0 0.0
2017-May-16 22:56N 46°10' W 001°14'0 0.0
2017-May-16 22:29N 46°10' W 001°14'0 0.0
2017-May-16 21:59N 46°10' W 001°14'0 0.0
2017-May-16 21:26N 46°10' W 001°14'0 0.0
2017-May-16 20:55N 46°10' W 001°14'0 0.0
2017-May-16 20:25N 46°10' W 001°14'0 0.0
2017-May-16 19:55N 46°10' W 001°14'0 0.0
2017-May-16 19:25N 46°10' W 001°14'0 0.0
2017-May-16 18:55N 46°10' W 001°14'0 0.0
2017-May-16 18:30N 46°10' W 001°14'0 0.0
2017-May-16 18:00N 46°10' W 001°14'0 0.0
2017-May-16 17:30N 46°10' W 001°14'0 0.0
2017-May-16 17:00N 46°10' W 001°14'0 0.0
2017-May-16 16:30N 46°10' W 001°14'0 0.0
2017-May-16 15:59N 46°10' W 001°14'0 0.0
2017-May-16 15:29N 46°10' W 001°14'0 0.0
2017-May-16 14:59N 46°10' W 001°14'0 0.0
2017-May-16 14:29N 46°10' W 001°14'0 0.0
2017-May-16 13:28N 46°10' W 001°14'0 0.0
2017-May-16 12:58N 46°10' W 001°14'0 0.0
2017-May-16 12:30N 46°10' W 001°14'3 6.2
2017-May-16 12:00N 46°07' W 001°16'4 8.5
2017-May-16 11:30N 46°06' W 001°22'510.1
2017-May-16 11:00N 46°07' W 001°29'510.1
2017-May-16 10:30N 46°07' W 001°36'510.2
2017-May-16 10:00N 46°10' W 001°43'510.7
2017-May-16 09:30N 46°13' W 001°49'610.8
2017-May-16 08:59N 46°16' W 001°55'510.8
2017-May-16 08:29N 46°20' W 002°02'510.8
2017-May-16 08:00N 46°23' W 002°08'610.7
2017-May-16 07:27N 46°26' W 002°15'510.9
2017-May-16 07:00N 46°29' W 002°20'610.9
2017-May-16 06:28N 46°33' W 002°27'2410.9
2017-May-16 04:14N 46°47' W 002°55'2310.9
2017-May-16 02:08N 47°01' W 003°22'2410.9
2017-May-15 23:58N 47°15' W 003°50'510.6
2017-May-15 23:27N 47°18' W 003°57'3310.9
2017-May-15 20:23N 47°38' W 004°36'711.2
2017-May-15 19:45N 47°43' W 004°44'411.1
2017-May-15 19:21N 47°47' W 004°48'411.3
2017-May-15 19:00N 47°50' W 004°52'611.0
2017-May-15 18:30N 47°54' W 004°57'610.5
2017-May-15 17:59N 47°58' W 005°02'5 9.9
2017-May-15 17:27N 48°02' W 005°07'4 9.1
2017-May-15 16:59N 48°06' W 005°10'33 8.3
2017-May-15 13:05N 48°38' W 005°14'110.7
2017-May-15 12:58N 48°39' W 005°12'511.0
2017-May-15 12:30N 48°43' W 005°06'611.4
2017-May-15 12:00N 48°46' W 004°60'85 9.9
2017-May-15 03:28N 49°42' W 003°23'611.9
2017-May-15 02:58N 49°46' W 003°16'612.1
2017-May-15 02:30N 49°50' W 003°09'612.1
2017-May-15 02:00N 49°54' W 003°02'  
Track history (hours):
 
Tides and Currents Weather Stations Pressure Air Temp Water Temp Dewpoint Dewpoint Depression Visibility Wind Speed Wind Dir Waves Ship Positions

Flinterborg

Last reported at 2017-May-25 01:42 UTC. Time now 2017-May-25 02:53 UTC.
Position N 50°34' W 006°07'.

Length 111 m; draft 4 m.

Type: Cargo ship. MMSI: 245433000.

Date/timePositionNaut miles runAvg speedWind from/ knotsBaromVisibWave heightAir tempDewpointWater temp
2017-May-25 01:42N 50°34' W 006°07'310.7
2017-May-25 01:25N 50°37' W 006°09'2511.2
2017-May-24 23:09N 51°00' W 006°23'211.5
2017-May-24 22:58N 51°02' W 006°24'911.5
2017-May-24 22:10N 51°11' W 006°28'611.3
2017-May-24 21:39N 51°17' W 006°32'211.5
2017-May-24 21:27N 51°19' W 006°33'1211.3
2017-May-24 20:22N 51°31' W 006°38'611.3
2017-May-24 19:49N 51°36' W 006°41'911.3
2017-May-24 18:59N 51°45' W 006°46'611.3
2017-May-24 18:29N 51°51' W 006°49'611.4
2017-May-24 17:56N 51°57' W 006°52'511.6
2017-May-24 17:28N 52°02' W 006°55'711.8
2017-May-24 16:53N 52°09' W 006°58'610.2
2017-May-24 16:20N 52°14' W 006°57'3 7.5
2017-May-24 15:57N 52°17' W 006°60'2 1.0
2017-May-24 14:17N 52°16' W 007°02'0 0.0
2017-May-24 10:08N 52°16' W 007°02'0 0.0
2017-May-24 07:25N 52°16' W 007°02'0 0.0
2017-May-24 06:55N 52°16' W 007°02'0 0.0
2017-May-24 03:31N 52°16' W 007°02'0 0.0
2017-May-24 01:05N 52°16' W 007°02'0 0.0
2017-May-23 23:34N 52°16' W 007°02'0 0.0
2017-May-23 19:48N 52°16' W 007°02'0 0.0
2017-May-23 12:53N 52°16' W 007°02'0 0.0
2017-May-23 11:53N 52°16' W 007°02'0 0.0
2017-May-23 07:50N 52°16' W 007°02'0 0.0
2017-May-23 07:09N 52°16' W 007°02'0 0.0
2017-May-23 03:25N 52°16' W 007°02'0 0.0
2017-May-23 02:31N 52°16' W 007°02'0 0.0
2017-May-23 02:19N 52°16' W 007°02'0 0.0
2017-May-23 00:00N 52°16' W 007°02'0 0.0
2017-May-22 23:30N 52°16' W 007°02'0 0.1
2017-May-22 22:59N 52°16' W 007°02'1 2.9
2017-May-22 22:30N 52°16' W 007°00'4 7.2
2017-May-22 21:59N 52°14' W 006°57'5 9.2
2017-May-22 21:29N 52°09' W 006°58'2 4.4
2017-May-22 21:00N 52°07' W 006°58'5 7.5
2017-May-22 20:21N 52°02' W 006°57'3 7.9
2017-May-22 19:59N 51°59' W 006°57'4 8.0
2017-May-22 19:31N 51°55' W 006°56'510.5
2017-May-22 19:01N 51°50' W 006°56'510.7
2017-May-22 18:30N 51°45' W 006°55'510.9
2017-May-22 18:00N 51°39' W 006°54'510.9
2017-May-22 17:30N 51°34' W 006°53'510.8
2017-May-22 17:00N 51°29' W 006°52'610.8
2017-May-22 16:29N 51°23' W 006°51'24210.9
2017-May-21 18:17N 47°24' W 005°59'310.7
2017-May-21 18:00N 47°21' W 005°57'611.5
2017-May-21 17:30N 47°18' W 005°50'611.2
2017-May-21 16:58N 47°14' W 005°43'511.0
2017-May-21 16:30N 47°12' W 005°37'611.6
2017-May-21 15:59N 47°08' W 005°29'511.2
2017-May-21 15:30N 47°05' W 005°23'610.9
2017-May-21 14:59N 47°02' W 005°16'1111.1
2017-May-21 13:58N 46°51' W 005°10'159 3.2
2017-May-19 12:08N 45°54' W 001°34'212.2
2017-May-19 11:58N 45°56' W 001°33'612.5
2017-May-19 11:30N 46°02' W 001°30'611.4
2017-May-19 11:00N 46°06' W 001°25'612.7
2017-May-19 10:30N 46°06' W 001°16'4 7.1
2017-May-19 09:58N 46°10' W 001°14'0 0.0
2017-May-19 09:28N 46°10' W 001°14'0 0.0
2017-May-19 09:00N 46°10' W 001°14'0 0.0
2017-May-19 08:30N 46°10' W 001°14'0 0.0
2017-May-19 08:00N 46°10' W 001°14'0 0.0
2017-May-19 07:30N 46°10' W 001°14'0 0.0
2017-May-19 06:57N 46°10' W 001°14'0 0.0
2017-May-19 06:29N 46°10' W 001°14'0 0.0
2017-May-19 05:59N 46°10' W 001°14'0 0.0
2017-May-19 05:29N 46°10' W 001°14'0 0.0
2017-May-19 04:59N 46°10' W 001°14'0 0.0
2017-May-19 04:22N 46°10' W 001°14'0 0.0
2017-May-19 03:49N 46°10' W 001°14'0 0.0
2017-May-19 03:28N 46°10' W 001°14'0 0.0
2017-May-19 02:55N 46°10' W 001°14'0 0.0
2017-May-19 02:28N 46°10' W 001°14'0 0.0
2017-May-19 02:00N 46°10' W 001°14'0 0.0
2017-May-19 01:30N 46°10' W 001°14'0 0.0
2017-May-19 01:00N 46°10' W 001°14'0 0.0
2017-May-19 00:30N 46°10' W 001°14'0 0.0
2017-May-19 00:00N 46°10' W 001°14'0 0.0
2017-May-18 23:26N 46°10' W 001°14'0 0.0
2017-May-18 22:59N 46°10' W 001°14'0 0.0
2017-May-18 22:29N 46°10' W 001°14'0 0.0
2017-May-18 21:59N 46°10' W 001°14'0 0.0
2017-May-18 21:29N 46°10' W 001°14'0 0.0
2017-May-18 20:58N 46°10' W 001°14'0 0.0
2017-May-18 20:28N 46°10' W 001°14'0 0.0
2017-May-18 19:58N 46°10' W 001°14'0 0.0
2017-May-18 19:28N 46°10' W 001°14'0 0.0
2017-May-18 19:00N 46°10' W 001°14'0 0.0
2017-May-18 18:27N 46°10' W 001°14'0 0.0
2017-May-18 18:00N 46°10' W 001°14'0 0.0
2017-May-18 17:27N 46°10' W 001°14'0 0.0
2017-May-18 16:53N 46°10' W 001°14'0 0.0
2017-May-18 16:26N 46°10' W 001°14'0 0.0
2017-May-18 15:59N 46°10' W 001°14'0 0.0
2017-May-18 15:29N 46°10' W 001°14'0 0.0
2017-May-18 14:59N 46°10' W 001°14'0 0.0
2017-May-18 14:28N 46°10' W 001°14'0 0.0
2017-May-18 13:28N 46°10' W 001°14'0 0.0
2017-May-18 12:58N 46°10' W 001°14'0 0.0
2017-May-18 12:28N 46°10' W 001°14'0 0.0
2017-May-18 12:00N 46°10' W 001°14'0 0.0
2017-May-18 11:30N 46°10' W 001°14'0 0.0
2017-May-18 11:00N 46°10' W 001°14'0 0.0
2017-May-18 10:30N 46°10' W 001°14'0 0.0
2017-May-18 10:00N 46°10' W 001°14'0 0.0
2017-May-18 09:29N 46°10' W 001°14'0 0.0
2017-May-18 08:59N 46°10' W 001°14'0 0.0
2017-May-18 08:26N 46°10' W 001°14'0 0.0
2017-May-18 07:59N 46°10' W 001°14'0 0.0
2017-May-18 07:28N 46°10' W 001°14'0 0.0
2017-May-18 06:46N 46°10' W 001°14'0 0.0
2017-May-18 06:28N 46°10' W 001°14'0 0.0
2017-May-18 05:58N 46°10' W 001°14'0 0.0
2017-May-18 05:28N 46°10' W 001°14'0 0.0
2017-May-18 04:57N 46°10' W 001°14'0 0.0
2017-May-18 04:27N 46°10' W 001°14'0 0.0
2017-May-18 03:57N 46°10' W 001°14'0 0.0
2017-May-18 03:30N 46°10' W 001°14'0 0.0
2017-May-18 02:59N 46°10' W 001°14'0 0.0
2017-May-18 02:29N 46°10' W 001°14'0 0.0
2017-May-18 01:56N 46°10' W 001°14'0 0.0
2017-May-18 01:29N 46°10' W 001°14'0 0.0
2017-May-18 00:59N 46°10' W 001°14'0 0.0
2017-May-18 00:28N 46°10' W 001°14'0 0.0
2017-May-17 23:55N 46°10' W 001°14'0 0.0
2017-May-17 23:28N 46°10' W 001°14'0 0.0
2017-May-17 22:55N 46°10' W 001°14'0 0.0
2017-May-17 22:31N 46°10' W 001°14'0 0.0
2017-May-17 22:00N 46°10' W 001°14'0 0.0
2017-May-17 21:30N 46°10' W 001°14'0 0.0
2017-May-17 21:00N 46°10' W 001°14'0 0.0
2017-May-17 20:30N 46°10' W 001°14'0 0.0
2017-May-17 19:59N 46°10' W 001°14'0 0.0
2017-May-17 19:29N 46°10' W 001°14'0 0.0
2017-May-17 18:59N 46°10' W 001°14'0 0.0
2017-May-17 18:23N 46°10' W 001°14'0 0.0
2017-May-17 17:59N 46°10' W 001°14'0 0.0
2017-May-17 17:10N 46°10' W 001°14'0 0.0
2017-May-17 16:58N 46°10' W 001°14'0 0.0
2017-May-17 16:28N 46°10' W 001°14'0 0.0
2017-May-17 15:58N 46°10' W 001°14'0 0.0
2017-May-17 15:21N 46°10' W 001°14'0 0.0
2017-May-17 15:00N 46°10' W 001°14'0 0.0
2017-May-17 14:00N 46°10' W 001°14'0 0.0
2017-May-17 13:27N 46°10' W 001°14'0 0.0
2017-May-17 12:56N 46°10' W 001°14'0 0.0
2017-May-17 12:26N 46°10' W 001°14'0 0.0
2017-May-17 11:56N 46°10' W 001°14'0 0.0
2017-May-17 11:26N 46°10' W 001°14'0 0.0
2017-May-17 10:59N 46°10' W 001°14'0 0.0
2017-May-17 10:19N 46°10' W 001°14'0 0.0
2017-May-17 09:55N 46°10' W 001°14'0 0.0
2017-May-17 09:25N 46°10' W 001°14'0 0.0
2017-May-17 08:55N 46°10' W 001°14'0 0.0
2017-May-17 08:31N 46°10' W 001°14'0 0.0
2017-May-17 08:00N 46°10' W 001°14'0 0.0
2017-May-17 07:30N 46°10' W 001°14'0 0.0
2017-May-17 07:00N 46°10' W 001°14'0 0.0
2017-May-17 06:30N 46°10' W 001°14'0 0.0
2017-May-17 05:53N 46°10' W 001°14'0 0.0
2017-May-17 05:29N 46°10' W 001°14'0 0.0
2017-May-17 04:59N 46°10' W 001°14'0 0.0
2017-May-17 04:29N 46°10' W 001°14'0 0.0
2017-May-17 03:59N 46°10' W 001°14'0 0.0
2017-May-17 03:28N 46°10' W 001°14'0 0.0
2017-May-17 02:58N 46°10' W 001°14'0 0.0
2017-May-17 02:28N 46°10' W 001°14'0 0.0
2017-May-17 01:58N 46°10' W 001°14'0 0.0
2017-May-17 01:27N 46°10' W 001°14'0 0.0
2017-May-17 01:00N 46°10' W 001°14'0 0.0
2017-May-17 00:27N 46°10' W 001°14'0 0.0
2017-May-16 23:57N 46°10' W 001°14'0 0.0
2017-May-16 23:30N 46°10' W 001°14'0 0.0
2017-May-16 22:56N 46°10' W 001°14'0 0.0
2017-May-16 22:29N 46°10' W 001°14'0 0.0
2017-May-16 21:59N 46°10' W 001°14'0 0.0
2017-May-16 21:26N 46°10' W 001°14'0 0.0
2017-May-16 20:55N 46°10' W 001°14'0 0.0
2017-May-16 20:25N 46°10' W 001°14'0 0.0
2017-May-16 19:55N 46°10' W 001°14'0 0.0
2017-May-16 19:25N 46°10' W 001°14'0 0.0
2017-May-16 18:55N 46°10' W 001°14'0 0.0
2017-May-16 18:30N 46°10' W 001°14'0 0.0
2017-May-16 18:00N 46°10' W 001°14'0 0.0
2017-May-16 17:30N 46°10' W 001°14'0 0.0
2017-May-16 17:00N 46°10' W 001°14'0 0.0
2017-May-16 16:30N 46°10' W 001°14'0 0.0
2017-May-16 15:59N 46°10' W 001°14'0 0.0
2017-May-16 15:29N 46°10' W 001°14'0 0.0
2017-May-16 14:59N 46°10' W 001°14'0 0.0
2017-May-16 14:29N 46°10' W 001°14'0 0.0
2017-May-16 13:28N 46°10' W 001°14'0 0.0
2017-May-16 12:58N 46°10' W 001°14'0 0.0
2017-May-16 12:30N 46°10' W 001°14'3 6.2
2017-May-16 12:00N 46°07' W 001°16'4 8.5
2017-May-16 11:30N 46°06' W 001°22'510.1
2017-May-16 11:00N 46°07' W 001°29'510.1
2017-May-16 10:30N 46°07' W 001°36'510.2
2017-May-16 10:00N 46°10' W 001°43'510.7
2017-May-16 09:30N 46°13' W 001°49'610.8
2017-May-16 08:59N 46°16' W 001°55'510.8
2017-May-16 08:29N 46°20' W 002°02'510.8
2017-May-16 08:00N 46°23' W 002°08'610.7
2017-May-16 07:27N 46°26' W 002°15'510.9
2017-May-16 07:00N 46°29' W 002°20'610.9
2017-May-16 06:28N 46°33' W 002°27'2410.9
2017-May-16 04:14N 46°47' W 002°55'2310.9
2017-May-16 02:08N 47°01' W 003°22'2410.9
2017-May-15 23:58N 47°15' W 003°50'510.6
2017-May-15 23:27N 47°18' W 003°57'3310.9
2017-May-15 20:23N 47°38' W 004°36'711.2
2017-May-15 19:45N 47°43' W 004°44'411.1
2017-May-15 19:21N 47°47' W 004°48'411.3
2017-May-15 19:00N 47°50' W 004°52'611.0
2017-May-15 18:30N 47°54' W 004°57'610.5
2017-May-15 17:59N 47°58' W 005°02'5 9.9
2017-May-15 17:27N 48°02' W 005°07'4 9.1
2017-May-15 16:59N 48°06' W 005°10'33 8.3
2017-May-15 13:05N 48°38' W 005°14'110.7
2017-May-15 12:58N 48°39' W 005°12'511.0
2017-May-15 12:30N 48°43' W 005°06'611.4
2017-May-15 12:00N 48°46' W 004°60'85 9.9
2017-May-15 03:28N 49°42' W 003°23'611.9
2017-May-15 02:58N 49°46' W 003°16'612.1
2017-May-15 02:30N 49°50' W 003°09'612.1
2017-May-15 02:00N 49°54' W 003°02'  

Dump ship's entire track history